sensor_id;sensor_type;location;lat;lon;timestamp;P1;durP1;ratioP1;P2;durP2;ratioP2
44204;SDS011;30163;42.698;23.344;2022-12-18T00:00:57;23.83;;;14.57;;
44204;SDS011;30163;42.698;23.344;2022-12-18T00:03:22;19.83;;;10.90;;
44204;SDS011;30163;42.698;23.344;2022-12-18T00:05:51;24.80;;;13.18;;
44204;SDS011;30163;42.698;23.344;2022-12-18T00:08:17;24.67;;;13.32;;
44204;SDS011;30163;42.698;23.344;2022-12-18T00:10:44;28.50;;;15.57;;
44204;SDS011;30163;42.698;23.344;2022-12-18T00:13:10;21.80;;;12.95;;
44204;SDS011;30163;42.698;23.344;2022-12-18T00:15:36;29.65;;;15.20;;
44204;SDS011;30163;42.698;23.344;2022-12-18T00:18:02;20.48;;;10.15;;
44204;SDS011;30163;42.698;23.344;2022-12-18T00:20:27;25.95;;;14.10;;
44204;SDS011;30163;42.698;23.344;2022-12-18T00:22:53;29.20;;;15.80;;
44204;SDS011;30163;42.698;23.344;2022-12-18T00:25:19;31.92;;;16.52;;
44204;SDS011;30163;42.698;23.344;2022-12-18T00:27:44;27.27;;;14.55;;
44204;SDS011;30163;42.698;23.344;2022-12-18T00:30:10;25.95;;;13.32;;
44204;SDS011;30163;42.698;23.344;2022-12-18T00:32:36;22.33;;;13.20;;
44204;SDS011;30163;42.698;23.344;2022-12-18T00:35:02;24.42;;;14.23;;
44204;SDS011;30163;42.698;23.344;2022-12-18T00:37:28;35.47;;;16.27;;
44204;SDS011;30163;42.698;23.344;2022-12-18T00:39:53;23.27;;;11.98;;
44204;SDS011;30163;42.698;23.344;2022-12-18T00:42:19;23.80;;;12.85;;
44204;SDS011;30163;42.698;23.344;2022-12-18T00:45:03;22.10;;;12.80;;
44204;SDS011;30163;42.698;23.344;2022-12-18T00:47:28;26.10;;;14.70;;
44204;SDS011;30163;42.698;23.344;2022-12-18T00:49:54;28.13;;;13.73;;
44204;SDS011;30163;42.698;23.344;2022-12-18T00:52:19;25.73;;;14.73;;
44204;SDS011;30163;42.698;23.344;2022-12-18T00:54:44;26.73;;;14.27;;
44204;SDS011;30163;42.698;23.344;2022-12-18T00:57:10;26.77;;;13.32;;
44204;SDS011;30163;42.698;23.344;2022-12-18T00:59:35;21.52;;;12.90;;
44204;SDS011;30163;42.698;23.344;2022-12-18T01:02:01;22.95;;;11.82;;
44204;SDS011;30163;42.698;23.344;2022-12-18T01:04:26;26.92;;;13.48;;
44204;SDS011;30163;42.698;23.344;2022-12-18T01:06:51;26.27;;;14.20;;
44204;SDS011;30163;42.698;23.344;2022-12-18T01:09:17;24.30;;;13.20;;
44204;SDS011;30163;42.698;23.344;2022-12-18T01:11:42;26.92;;;14.23;;
44204;SDS011;30163;42.698;23.344;2022-12-18T01:14:08;28.77;;;15.82;;
44204;SDS011;30163;42.698;23.344;2022-12-18T01:16:33;26.88;;;15.32;;
44204;SDS011;30163;42.698;23.344;2022-12-18T01:18:58;33.92;;;17.77;;
44204;SDS011;30163;42.698;23.344;2022-12-18T01:21:24;32.75;;;17.90;;
44204;SDS011;30163;42.698;23.344;2022-12-18T01:23:53;35.38;;;18.15;;
44204;SDS011;30163;42.698;23.344;2022-12-18T01:26:19;35.72;;;16.98;;
44204;SDS011;30163;42.698;23.344;2022-12-18T01:28:45;27.90;;;15.68;;
44204;SDS011;30163;42.698;23.344;2022-12-18T01:31:11;33.17;;;16.48;;
44204;SDS011;30163;42.698;23.344;2022-12-18T01:33:37;26.27;;;12.93;;
44204;SDS011;30163;42.698;23.344;2022-12-18T01:36:02;28.17;;;15.57;;
44204;SDS011;30163;42.698;23.344;2022-12-18T01:38:28;33.08;;;18.15;;
44204;SDS011;30163;42.698;23.344;2022-12-18T01:41:00;42.20;;;17.17;;
44204;SDS011;30163;42.698;23.344;2022-12-18T01:43:45;33.22;;;17.38;;
44204;SDS011;30163;42.698;23.344;2022-12-18T01:46:13;45.10;;;18.67;;
44204;SDS011;30163;42.698;23.344;2022-12-18T01:48:39;36.78;;;18.70;;
44204;SDS011;30163;42.698;23.344;2022-12-18T01:51:05;32.38;;;17.83;;
44204;SDS011;30163;42.698;23.344;2022-12-18T01:53:32;26.27;;;15.55;;
44204;SDS011;30163;42.698;23.344;2022-12-18T01:55:57;27.80;;;14.85;;
44204;SDS011;30163;42.698;23.344;2022-12-18T02:01:10;35.83;;;17.65;;
44204;SDS011;30163;42.698;23.344;2022-12-18T02:03:35;26.08;;;14.05;;
44204;SDS011;30163;42.698;23.344;2022-12-18T02:06:19;23.85;;;14.02;;
44204;SDS011;30163;42.698;23.344;2022-12-18T02:11:59;24.80;;;14.43;;
44204;SDS011;30163;42.698;23.344;2022-12-18T02:17:04;26.42;;;12.25;;
44204;SDS011;30163;42.698;23.344;2022-12-18T02:28:25;23.67;;;12.73;;
44204;SDS011;30163;42.698;23.344;2022-12-18T02:30:53;27.90;;;12.48;;
44204;SDS011;30163;42.698;23.344;2022-12-18T02:33:21;23.25;;;14.45;;
44204;SDS011;30163;42.698;23.344;2022-12-18T02:35:47;30.83;;;13.63;;
44204;SDS011;30163;42.698;23.344;2022-12-18T02:38:13;25.73;;;13.23;;
44204;SDS011;30163;42.698;23.344;2022-12-18T02:40:39;26.45;;;14.25;;
44204;SDS011;30163;42.698;23.344;2022-12-18T02:43:09;29.95;;;15.63;;
44204;SDS011;30163;42.698;23.344;2022-12-18T02:45:37;23.77;;;12.90;;
44204;SDS011;30163;42.698;23.344;2022-12-18T02:48:12;24.80;;;13.60;;
44204;SDS011;30163;42.698;23.344;2022-12-18T02:50:38;31.52;;;16.58;;
44204;SDS011;30163;42.698;23.344;2022-12-18T02:58:37;29.58;;;15.55;;
44204;SDS011;30163;42.698;23.344;2022-12-18T03:03:46;27.60;;;14.00;;
44204;SDS011;30163;42.698;23.344;2022-12-18T03:06:18;28.55;;;15.90;;
44204;SDS011;30163;42.698;23.344;2022-12-18T03:08:50;27.33;;;14.23;;
44204;SDS011;30163;42.698;23.344;2022-12-18T03:11:18;26.20;;;15.30;;
44204;SDS011;30163;42.698;23.344;2022-12-18T03:14:06;26.38;;;13.93;;
44204;SDS011;30163;42.698;23.344;2022-12-18T03:16:32;28.50;;;15.82;;
44204;SDS011;30163;42.698;23.344;2022-12-18T03:19:03;22.02;;;11.15;;
44204;SDS011;30163;42.698;23.344;2022-12-18T03:21:33;27.77;;;13.50;;
44204;SDS011;30163;42.698;23.344;2022-12-18T03:24:03;29.50;;;15.60;;
44204;SDS011;30163;42.698;23.344;2022-12-18T03:26:31;26.52;;;15.30;;
44204;SDS011;30163;42.698;23.344;2022-12-18T03:28:59;24.33;;;12.90;;
44204;SDS011;30163;42.698;23.344;2022-12-18T03:31:25;31.58;;;15.38;;
44204;SDS011;30163;42.698;23.344;2022-12-18T03:33:54;27.60;;;15.07;;
44204;SDS011;30163;42.698;23.344;2022-12-18T03:36:22;24.33;;;13.95;;
44204;SDS011;30163;42.698;23.344;2022-12-18T03:38:48;24.52;;;12.40;;
44204;SDS011;30163;42.698;23.344;2022-12-18T03:46:41;25.90;;;13.40;;
44204;SDS011;30163;42.698;23.344;2022-12-18T03:49:47;22.13;;;11.57;;
44204;SDS011;30163;42.698;23.344;2022-12-18T03:52:20;24.98;;;12.80;;
44204;SDS011;30163;42.698;23.344;2022-12-18T03:54:51;25.15;;;12.27;;
44204;SDS011;30163;42.698;23.344;2022-12-18T03:57:21;26.55;;;13.55;;
44204;SDS011;30163;42.698;23.344;2022-12-18T03:59:49;23.98;;;13.77;;
44204;SDS011;30163;42.698;23.344;2022-12-18T04:02:16;23.67;;;12.13;;
44204;SDS011;30163;42.698;23.344;2022-12-18T04:04:42;32.60;;;13.32;;
44204;SDS011;30163;42.698;23.344;2022-12-18T04:07:08;26.95;;;14.43;;
44204;SDS011;30163;42.698;23.344;2022-12-18T04:09:34;24.58;;;11.75;;
44204;SDS011;30163;42.698;23.344;2022-12-18T04:12:01;30.38;;;15.38;;
44204;SDS011;30163;42.698;23.344;2022-12-18T04:14:26;28.98;;;13.68;;
44204;SDS011;30163;42.698;23.344;2022-12-18T04:16:51;40.13;;;18.40;;
44204;SDS011;30163;42.698;23.344;2022-12-18T04:19:17;31.40;;;15.00;;
44204;SDS011;30163;42.698;23.344;2022-12-18T04:21:42;33.30;;;17.55;;
44204;SDS011;30163;42.698;23.344;2022-12-18T04:24:08;31.50;;;15.77;;
44204;SDS011;30163;42.698;23.344;2022-12-18T04:26:33;30.13;;;14.60;;
44204;SDS011;30163;42.698;23.344;2022-12-18T04:28:59;36.13;;;18.20;;
44204;SDS011;30163;42.698;23.344;2022-12-18T04:31:24;28.92;;;17.27;;
44204;SDS011;30163;42.698;23.344;2022-12-18T04:33:50;37.05;;;17.33;;
44204;SDS011;30163;42.698;23.344;2022-12-18T04:36:15;35.95;;;15.70;;
44204;SDS011;30163;42.698;23.344;2022-12-18T04:38:41;36.03;;;16.13;;
44204;SDS011;30163;42.698;23.344;2022-12-18T04:41:06;35.22;;;18.90;;
44204;SDS011;30163;42.698;23.344;2022-12-18T04:43:32;37.42;;;17.73;;
44204;SDS011;30163;42.698;23.344;2022-12-18T04:46:03;36.35;;;17.35;;
44204;SDS011;30163;42.698;23.344;2022-12-18T04:48:31;34.50;;;16.88;;
44204;SDS011;30163;42.698;23.344;2022-12-18T04:50:57;26.55;;;14.00;;
44204;SDS011;30163;42.698;23.344;2022-12-18T04:53:22;34.83;;;17.45;;
44204;SDS011;30163;42.698;23.344;2022-12-18T04:55:48;34.95;;;17.35;;
44204;SDS011;30163;42.698;23.344;2022-12-18T04:58:13;40.67;;;18.45;;
44204;SDS011;30163;42.698;23.344;2022-12-18T05:00:39;38.30;;;17.70;;
44204;SDS011;30163;42.698;23.344;2022-12-18T05:03:04;43.33;;;19.13;;
44204;SDS011;30163;42.698;23.344;2022-12-18T05:05:30;38.13;;;16.90;;
44204;SDS011;30163;42.698;23.344;2022-12-18T05:07:55;43.25;;;20.42;;
44204;SDS011;30163;42.698;23.344;2022-12-18T05:10:20;41.50;;;17.80;;
44204;SDS011;30163;42.698;23.344;2022-12-18T05:12:46;40.35;;;19.20;;
44204;SDS011;30163;42.698;23.344;2022-12-18T05:15:27;41.40;;;20.83;;
44204;SDS011;30163;42.698;23.344;2022-12-18T05:17:53;35.28;;;16.52;;
44204;SDS011;30163;42.698;23.344;2022-12-18T05:20:19;46.22;;;20.65;;
44204;SDS011;30163;42.698;23.344;2022-12-18T05:22:44;38.72;;;18.92;;
44204;SDS011;30163;42.698;23.344;2022-12-18T05:25:10;41.60;;;20.92;;
44204;SDS011;30163;42.698;23.344;2022-12-18T05:27:35;37.60;;;17.58;;
44204;SDS011;30163;42.698;23.344;2022-12-18T05:30:01;45.22;;;22.92;;
44204;SDS011;30163;42.698;23.344;2022-12-18T05:32:26;39.20;;;18.77;;
44204;SDS011;30163;42.698;23.344;2022-12-18T05:34:51;32.60;;;16.45;;
44204;SDS011;30163;42.698;23.344;2022-12-18T05:37:17;41.00;;;17.80;;
44204;SDS011;30163;42.698;23.344;2022-12-18T05:39:42;35.90;;;17.48;;
44204;SDS011;30163;42.698;23.344;2022-12-18T05:42:09;38.67;;;16.17;;
44204;SDS011;30163;42.698;23.344;2022-12-18T05:44:34;35.05;;;16.75;;
44204;SDS011;30163;42.698;23.344;2022-12-18T05:47:00;41.58;;;18.73;;
44204;SDS011;30163;42.698;23.344;2022-12-18T05:49:25;30.48;;;15.95;;
44204;SDS011;30163;42.698;23.344;2022-12-18T05:51:51;54.47;;;22.25;;
44204;SDS011;30163;42.698;23.344;2022-12-18T05:54:16;39.17;;;19.05;;
44204;SDS011;30163;42.698;23.344;2022-12-18T05:56:42;43.28;;;18.20;;
44204;SDS011;30163;42.698;23.344;2022-12-18T05:59:07;39.92;;;17.88;;
44204;SDS011;30163;42.698;23.344;2022-12-18T06:01:32;46.35;;;22.45;;
44204;SDS011;30163;42.698;23.344;2022-12-18T06:03:58;32.72;;;15.00;;
44204;SDS011;30163;42.698;23.344;2022-12-18T06:06:24;38.45;;;17.45;;
44204;SDS011;30163;42.698;23.344;2022-12-18T06:08:52;35.25;;;17.00;;
44204;SDS011;30163;42.698;23.344;2022-12-18T06:11:18;42.80;;;18.02;;
44204;SDS011;30163;42.698;23.344;2022-12-18T06:13:45;44.20;;;20.75;;
44204;SDS011;30163;42.698;23.344;2022-12-18T06:16:11;43.90;;;20.08;;
44204;SDS011;30163;42.698;23.344;2022-12-18T06:18:37;44.38;;;21.02;;
44204;SDS011;30163;42.698;23.344;2022-12-18T06:21:02;36.63;;;16.92;;
44204;SDS011;30163;42.698;23.344;2022-12-18T06:23:27;43.90;;;20.70;;
44204;SDS011;30163;42.698;23.344;2022-12-18T06:25:53;46.20;;;22.33;;
44204;SDS011;30163;42.698;23.344;2022-12-18T06:28:19;40.85;;;20.30;;
44204;SDS011;30163;42.698;23.344;2022-12-18T06:30:44;40.03;;;18.73;;
44204;SDS011;30163;42.698;23.344;2022-12-18T06:33:11;44.95;;;21.20;;
44204;SDS011;30163;42.698;23.344;2022-12-18T06:35:36;40.05;;;21.38;;
44204;SDS011;30163;42.698;23.344;2022-12-18T06:38:02;43.47;;;21.17;;
44204;SDS011;30163;42.698;23.344;2022-12-18T06:40:28;50.13;;;24.33;;
44204;SDS011;30163;42.698;23.344;2022-12-18T06:42:53;48.78;;;21.73;;
44204;SDS011;30163;42.698;23.344;2022-12-18T06:45:19;35.33;;;18.17;;
44204;SDS011;30163;42.698;23.344;2022-12-18T06:47:44;44.15;;;20.60;;
44204;SDS011;30163;42.698;23.344;2022-12-18T06:50:10;42.72;;;19.48;;
44204;SDS011;30163;42.698;23.344;2022-12-18T06:52:35;34.25;;;15.65;;
44204;SDS011;30163;42.698;23.344;2022-12-18T06:55:01;53.65;;;22.55;;
44204;SDS011;30163;42.698;23.344;2022-12-18T06:57:27;38.47;;;19.02;;
44204;SDS011;30163;42.698;23.344;2022-12-18T06:59:53;40.92;;;19.25;;
44204;SDS011;30163;42.698;23.344;2022-12-18T07:02:18;32.72;;;15.55;;
44204;SDS011;30163;42.698;23.344;2022-12-18T07:04:43;38.60;;;16.65;;
44204;SDS011;30163;42.698;23.344;2022-12-18T07:07:09;34.15;;;17.02;;
44204;SDS011;30163;42.698;23.344;2022-12-18T07:09:34;38.25;;;18.73;;
44204;SDS011;30163;42.698;23.344;2022-12-18T07:12:00;38.67;;;19.15;;
44204;SDS011;30163;42.698;23.344;2022-12-18T07:14:25;32.13;;;15.55;;
44204;SDS011;30163;42.698;23.344;2022-12-18T07:16:50;38.97;;;20.02;;
44204;SDS011;30163;42.698;23.344;2022-12-18T07:19:16;52.45;;;21.20;;
44204;SDS011;30163;42.698;23.344;2022-12-18T07:21:41;38.10;;;19.35;;
44204;SDS011;30163;42.698;23.344;2022-12-18T07:24:07;39.05;;;18.52;;
44204;SDS011;30163;42.698;23.344;2022-12-18T07:26:32;38.60;;;18.50;;
44204;SDS011;30163;42.698;23.344;2022-12-18T07:28:58;48.42;;;22.15;;
44204;SDS011;30163;42.698;23.344;2022-12-18T07:31:23;45.10;;;20.63;;
44204;SDS011;30163;42.698;23.344;2022-12-18T07:33:50;44.72;;;21.55;;
44204;SDS011;30163;42.698;23.344;2022-12-18T07:36:15;49.85;;;25.00;;
44204;SDS011;30163;42.698;23.344;2022-12-18T07:38:41;40.63;;;20.42;;
44204;SDS011;30163;42.698;23.344;2022-12-18T07:41:08;62.53;;;28.25;;
44204;SDS011;30163;42.698;23.344;2022-12-18T07:43:34;53.53;;;24.90;;
44204;SDS011;30163;42.698;23.344;2022-12-18T07:46:00;49.75;;;22.27;;
44204;SDS011;30163;42.698;23.344;2022-12-18T07:48:25;48.88;;;24.02;;
44204;SDS011;30163;42.698;23.344;2022-12-18T07:50:51;65.78;;;23.02;;
44204;SDS011;30163;42.698;23.344;2022-12-18T07:53:17;51.60;;;20.52;;
44204;SDS011;30163;42.698;23.344;2022-12-18T07:55:43;54.15;;;24.13;;
44204;SDS011;30163;42.698;23.344;2022-12-18T07:58:08;54.67;;;23.67;;
44204;SDS011;30163;42.698;23.344;2022-12-18T08:00:33;66.78;;;26.90;;
44204;SDS011;30163;42.698;23.344;2022-12-18T08:02:59;55.58;;;23.08;;
44204;SDS011;30163;42.698;23.344;2022-12-18T08:05:25;49.75;;;21.45;;
44204;SDS011;30163;42.698;23.344;2022-12-18T08:07:50;49.28;;;22.35;;
44204;SDS011;30163;42.698;23.344;2022-12-18T08:10:16;55.38;;;25.23;;
44204;SDS011;30163;42.698;23.344;2022-12-18T08:12:42;60.95;;;25.88;;
44204;SDS011;30163;42.698;23.344;2022-12-18T08:15:07;53.67;;;25.05;;
44204;SDS011;30163;42.698;23.344;2022-12-18T08:17:36;56.13;;;26.77;;
44204;SDS011;30163;42.698;23.344;2022-12-18T08:20:14;58.97;;;24.00;;
44204;SDS011;30163;42.698;23.344;2022-12-18T08:22:41;60.90;;;28.27;;
44204;SDS011;30163;42.698;23.344;2022-12-18T08:25:07;55.70;;;24.00;;
44204;SDS011;30163;42.698;23.344;2022-12-18T08:27:33;60.63;;;27.85;;
44204;SDS011;30163;42.698;23.344;2022-12-18T08:29:58;53.88;;;26.52;;
44204;SDS011;30163;42.698;23.344;2022-12-18T08:32:24;62.15;;;26.70;;
44204;SDS011;30163;42.698;23.344;2022-12-18T08:34:51;53.25;;;24.83;;
44204;SDS011;30163;42.698;23.344;2022-12-18T08:37:16;55.88;;;23.95;;
44204;SDS011;30163;42.698;23.344;2022-12-18T08:39:42;55.35;;;26.33;;
44204;SDS011;30163;42.698;23.344;2022-12-18T08:42:07;56.25;;;24.23;;
44204;SDS011;30163;42.698;23.344;2022-12-18T08:44:51;45.83;;;20.67;;
44204;SDS011;30163;42.698;23.344;2022-12-18T08:47:17;53.28;;;23.67;;
44204;SDS011;30163;42.698;23.344;2022-12-18T08:49:42;56.28;;;26.13;;
44204;SDS011;30163;42.698;23.344;2022-12-18T08:52:07;52.17;;;23.50;;
44204;SDS011;30163;42.698;23.344;2022-12-18T08:54:33;51.05;;;20.52;;
44204;SDS011;30163;42.698;23.344;2022-12-18T08:56:59;51.60;;;19.35;;
44204;SDS011;30163;42.698;23.344;2022-12-18T08:59:24;55.97;;;25.33;;
44204;SDS011;30163;42.698;23.344;2022-12-18T09:01:50;53.70;;;22.70;;
44204;SDS011;30163;42.698;23.344;2022-12-18T09:04:15;44.47;;;22.80;;
44204;SDS011;30163;42.698;23.344;2022-12-18T09:06:40;47.00;;;20.77;;
44204;SDS011;30163;42.698;23.344;2022-12-18T09:09:06;52.50;;;22.58;;
44204;SDS011;30163;42.698;23.344;2022-12-18T09:11:32;45.72;;;21.60;;
44204;SDS011;30163;42.698;23.344;2022-12-18T09:13:59;36.20;;;16.23;;
44204;SDS011;30163;42.698;23.344;2022-12-18T09:16:25;47.83;;;20.08;;
44204;SDS011;30163;42.698;23.344;2022-12-18T09:18:53;47.35;;;21.33;;
44204;SDS011;30163;42.698;23.344;2022-12-18T09:21:24;49.83;;;21.55;;
44204;SDS011;30163;42.698;23.344;2022-12-18T09:23:50;39.50;;;18.85;;
44204;SDS011;30163;42.698;23.344;2022-12-18T09:26:16;55.78;;;22.60;;
44204;SDS011;30163;42.698;23.344;2022-12-18T09:28:42;52.13;;;22.02;;
44204;SDS011;30163;42.698;23.344;2022-12-18T09:31:08;47.83;;;21.13;;
44204;SDS011;30163;42.698;23.344;2022-12-18T09:33:35;43.15;;;18.95;;
44204;SDS011;30163;42.698;23.344;2022-12-18T09:36:05;43.95;;;17.30;;
44204;SDS011;30163;42.698;23.344;2022-12-18T09:38:32;46.38;;;20.23;;
44204;SDS011;30163;42.698;23.344;2022-12-18T09:41:41;38.65;;;15.63;;
44204;SDS011;30163;42.698;23.344;2022-12-18T09:44:00;46.13;;;21.35;;
44204;SDS011;30163;42.698;23.344;2022-12-18T09:46:31;53.20;;;23.92;;
44204;SDS011;30163;42.698;23.344;2022-12-18T09:49:00;55.65;;;24.90;;
44204;SDS011;30163;42.698;23.344;2022-12-18T09:51:29;47.70;;;23.30;;
44204;SDS011;30163;42.698;23.344;2022-12-18T09:54:07;37.35;;;18.02;;
44204;SDS011;30163;42.698;23.344;2022-12-18T09:56:42;43.85;;;20.23;;
44204;SDS011;30163;42.698;23.344;2022-12-18T09:59:14;38.08;;;17.77;;
44204;SDS011;30163;42.698;23.344;2022-12-18T10:01:43;47.83;;;22.20;;
44204;SDS011;30163;42.698;23.344;2022-12-18T10:04:08;45.25;;;19.25;;
44204;SDS011;30163;42.698;23.344;2022-12-18T10:06:46;47.78;;;20.60;;
44204;SDS011;30163;42.698;23.344;2022-12-18T10:09:19;34.70;;;17.27;;
44204;SDS011;30163;42.698;23.344;2022-12-18T10:11:54;36.45;;;17.08;;
44204;SDS011;30163;42.698;23.344;2022-12-18T10:14:34;37.53;;;17.50;;
44204;SDS011;30163;42.698;23.344;2022-12-18T10:27:56;44.30;;;19.73;;
44204;SDS011;30163;42.698;23.344;2022-12-18T10:30:24;45.85;;;21.27;;
44204;SDS011;30163;42.698;23.344;2022-12-18T10:32:50;50.17;;;22.75;;
44204;SDS011;30163;42.698;23.344;2022-12-18T10:35:25;39.97;;;18.25;;
44204;SDS011;30163;42.698;23.344;2022-12-18T10:38:02;38.67;;;17.45;;
44204;SDS011;30163;42.698;23.344;2022-12-18T10:43:24;44.38;;;20.27;;
44204;SDS011;30163;42.698;23.344;2022-12-18T10:48:39;54.67;;;23.55;;
44204;SDS011;30163;42.698;23.344;2022-12-18T10:51:06;59.67;;;22.80;;
44204;SDS011;30163;42.698;23.344;2022-12-18T10:53:33;39.78;;;19.25;;
44204;SDS011;30163;42.698;23.344;2022-12-18T10:55:59;37.00;;;16.48;;
44204;SDS011;30163;42.698;23.344;2022-12-18T11:01:13;46.08;;;21.17;;
44204;SDS011;30163;42.698;23.344;2022-12-18T11:06:30;48.10;;;22.75;;
44204;SDS011;30163;42.698;23.344;2022-12-18T11:08:59;54.05;;;21.35;;
44204;SDS011;30163;42.698;23.344;2022-12-18T11:11:29;54.22;;;21.55;;
44204;SDS011;30163;42.698;23.344;2022-12-18T11:16:28;50.28;;;24.05;;
44204;SDS011;30163;42.698;23.344;2022-12-18T11:19:02;49.78;;;22.00;;
44204;SDS011;30163;42.698;23.344;2022-12-18T11:21:46;39.17;;;18.00;;
44204;SDS011;30163;42.698;23.344;2022-12-18T11:24:17;39.03;;;18.23;;
44204;SDS011;30163;42.698;23.344;2022-12-18T11:26:46;44.72;;;20.77;;
44204;SDS011;30163;42.698;23.344;2022-12-18T11:29:16;43.97;;;21.45;;
44204;SDS011;30163;42.698;23.344;2022-12-18T11:31:42;50.85;;;22.27;;
44204;SDS011;30163;42.698;23.344;2022-12-18T11:34:13;53.70;;;23.50;;
44204;SDS011;30163;42.698;23.344;2022-12-18T11:36:45;45.72;;;20.10;;
44204;SDS011;30163;42.698;23.344;2022-12-18T11:39:13;41.78;;;18.58;;
44204;SDS011;30163;42.698;23.344;2022-12-18T11:41:47;45.93;;;22.07;;
44204;SDS011;30163;42.698;23.344;2022-12-18T11:44:54;46.35;;;21.88;;
44204;SDS011;30163;42.698;23.344;2022-12-18T11:50:37;48.97;;;20.33;;
44204;SDS011;30163;42.698;23.344;2022-12-18T11:55:45;56.40;;;23.48;;
44204;SDS011;30163;42.698;23.344;2022-12-18T12:03:53;55.55;;;20.20;;
44204;SDS011;30163;42.698;23.344;2022-12-18T12:06:23;52.40;;;22.10;;
44204;SDS011;30163;42.698;23.344;2022-12-18T12:22:34;53.65;;;22.30;;
44204;SDS011;30163;42.698;23.344;2022-12-18T12:28:01;54.63;;;23.52;;
44204;SDS011;30163;42.698;23.344;2022-12-18T12:33:36;38.13;;;17.42;;
44204;SDS011;30163;42.698;23.344;2022-12-18T12:36:23;44.88;;;20.52;;
44204;SDS011;30163;42.698;23.344;2022-12-18T12:38:55;38.50;;;18.90;;
44204;SDS011;30163;42.698;23.344;2022-12-18T12:41:26;50.05;;;20.45;;
44204;SDS011;30163;42.698;23.344;2022-12-18T12:44:16;48.72;;;20.20;;
44204;SDS011;30163;42.698;23.344;2022-12-18T12:46:47;46.17;;;21.80;;
44204;SDS011;30163;42.698;23.344;2022-12-18T12:49:15;43.60;;;18.52;;
44204;SDS011;30163;42.698;23.344;2022-12-18T12:51:45;45.90;;;19.85;;
44204;SDS011;30163;42.698;23.344;2022-12-18T12:54:17;50.65;;;23.70;;
44204;SDS011;30163;42.698;23.344;2022-12-18T12:57:00;45.03;;;21.40;;
44204;SDS011;30163;42.698;23.344;2022-12-18T13:02:14;55.05;;;24.25;;
44204;SDS011;30163;42.698;23.344;2022-12-18T13:04:48;56.92;;;22.15;;
44204;SDS011;30163;42.698;23.344;2022-12-18T13:15:45;39.25;;;17.45;;
44204;SDS011;30163;42.698;23.344;2022-12-18T13:20:46;41.13;;;19.25;;
44204;SDS011;30163;42.698;23.344;2022-12-18T13:31:01;43.63;;;19.23;;
44204;SDS011;30163;42.698;23.344;2022-12-18T13:36:09;59.00;;;22.60;;
44204;SDS011;30163;42.698;23.344;2022-12-18T13:38:42;52.63;;;22.15;;
44204;SDS011;30163;42.698;23.344;2022-12-18T13:51:39;49.42;;;22.75;;
44204;SDS011;30163;42.698;23.344;2022-12-18T13:56:58;55.05;;;21.73;;
44204;SDS011;30163;42.698;23.344;2022-12-18T13:59:33;52.10;;;22.95;;
44204;SDS011;30163;42.698;23.344;2022-12-18T14:02:04;42.20;;;20.73;;
44204;SDS011;30163;42.698;23.344;2022-12-18T14:04:37;43.47;;;17.98;;
44204;SDS011;30163;42.698;23.344;2022-12-18T14:09:31;44.58;;;19.80;;
44204;SDS011;30163;42.698;23.344;2022-12-18T14:12:00;37.10;;;16.05;;
44204;SDS011;30163;42.698;23.344;2022-12-18T14:14:45;40.70;;;19.35;;
44204;SDS011;30163;42.698;23.344;2022-12-18T14:17:12;49.75;;;21.13;;
44204;SDS011;30163;42.698;23.344;2022-12-18T14:19:42;37.10;;;17.13;;
44204;SDS011;30163;42.698;23.344;2022-12-18T14:22:19;50.97;;;20.67;;
44204;SDS011;30163;42.698;23.344;2022-12-18T14:24:46;50.67;;;21.60;;
44204;SDS011;30163;42.698;23.344;2022-12-18T14:27:22;46.15;;;20.38;;
44204;SDS011;30163;42.698;23.344;2022-12-18T14:29:49;46.72;;;19.77;;
44204;SDS011;30163;42.698;23.344;2022-12-18T14:32:16;48.13;;;22.42;;
44204;SDS011;30163;42.698;23.344;2022-12-18T14:34:46;47.03;;;20.90;;
44204;SDS011;30163;42.698;23.344;2022-12-18T14:37:13;47.65;;;20.80;;
44204;SDS011;30163;42.698;23.344;2022-12-18T14:39:40;51.78;;;23.48;;
44204;SDS011;30163;42.698;23.344;2022-12-18T14:42:17;46.90;;;20.17;;
44204;SDS011;30163;42.698;23.344;2022-12-18T14:44:43;49.60;;;21.13;;
44204;SDS011;30163;42.698;23.344;2022-12-18T14:47:13;44.72;;;21.45;;
44204;SDS011;30163;42.698;23.344;2022-12-18T14:49:39;40.35;;;18.90;;
44204;SDS011;30163;42.698;23.344;2022-12-18T14:52:16;37.33;;;17.20;;
44204;SDS011;30163;42.698;23.344;2022-12-18T14:54:48;47.80;;;19.63;;
44204;SDS011;30163;42.698;23.344;2022-12-18T14:57:23;46.88;;;21.55;;
44204;SDS011;30163;42.698;23.344;2022-12-18T14:59:51;33.22;;;14.82;;
44204;SDS011;30163;42.698;23.344;2022-12-18T15:02:21;39.22;;;17.83;;
44204;SDS011;30163;42.698;23.344;2022-12-18T15:04:53;42.65;;;19.52;;
44204;SDS011;30163;42.698;23.344;2022-12-18T15:07:24;54.88;;;20.65;;
44204;SDS011;30163;42.698;23.344;2022-12-18T15:10:03;36.80;;;16.45;;
44204;SDS011;30163;42.698;23.344;2022-12-18T15:18:02;47.58;;;20.40;;
44204;SDS011;30163;42.698;23.344;2022-12-18T15:20:31;46.40;;;19.45;;
44204;SDS011;30163;42.698;23.344;2022-12-18T15:22:58;44.78;;;20.33;;
44204;SDS011;30163;42.698;23.344;2022-12-18T15:25:36;42.15;;;19.00;;
44204;SDS011;30163;42.698;23.344;2022-12-18T15:28:03;45.50;;;18.83;;
44204;SDS011;30163;42.698;23.344;2022-12-18T15:30:28;48.45;;;20.92;;
44204;SDS011;30163;42.698;23.344;2022-12-18T15:35:45;44.85;;;19.13;;
44204;SDS011;30163;42.698;23.344;2022-12-18T15:38:11;40.00;;;18.75;;
44204;SDS011;30163;42.698;23.344;2022-12-18T15:40:36;41.90;;;19.13;;
44204;SDS011;30163;42.698;23.344;2022-12-18T15:43:04;43.55;;;19.73;;
44204;SDS011;30163;42.698;23.344;2022-12-18T15:45:48;48.42;;;20.80;;
44204;SDS011;30163;42.698;23.344;2022-12-18T15:48:21;44.90;;;21.67;;
44204;SDS011;30163;42.698;23.344;2022-12-18T15:50:47;48.60;;;18.63;;
44204;SDS011;30163;42.698;23.344;2022-12-18T15:53:13;52.50;;;23.45;;
44204;SDS011;30163;42.698;23.344;2022-12-18T15:55:38;56.08;;;19.98;;
44204;SDS011;30163;42.698;23.344;2022-12-18T15:58:22;48.90;;;22.35;;
44204;SDS011;30163;42.698;23.344;2022-12-18T16:00:48;51.13;;;21.83;;
44204;SDS011;30163;42.698;23.344;2022-12-18T16:03:13;49.28;;;22.27;;
44204;SDS011;30163;42.698;23.344;2022-12-18T16:05:38;50.10;;;23.02;;
44204;SDS011;30163;42.698;23.344;2022-12-18T16:08:04;50.20;;;21.88;;
44204;SDS011;30163;42.698;23.344;2022-12-18T16:10:29;48.20;;;22.52;;
44204;SDS011;30163;42.698;23.344;2022-12-18T16:12:55;52.10;;;23.75;;
44204;SDS011;30163;42.698;23.344;2022-12-18T16:15:20;50.97;;;21.65;;
44204;SDS011;30163;42.698;23.344;2022-12-18T16:17:46;45.97;;;20.75;;
44204;SDS011;30163;42.698;23.344;2022-12-18T16:20:19;51.58;;;22.00;;
44204;SDS011;30163;42.698;23.344;2022-12-18T16:22:46;51.53;;;23.48;;
44204;SDS011;30163;42.698;23.344;2022-12-18T16:25:27;49.03;;;20.77;;
44204;SDS011;30163;42.698;23.344;2022-12-18T16:27:53;47.75;;;21.20;;
44204;SDS011;30163;42.698;23.344;2022-12-18T16:30:23;58.80;;;24.15;;